Time;durP1;ratioP1;P1;durP2;ratioP2;P2;SDS_P1;SDS_P2;PMS_P1;PMS_P2;Temp;Humidity;BMP_temperature;BMP_pressure;BME280_temperature;BME280_humidity;BME280_pressure;Samples;Min_cycle;Max_cycle;Signal;HPM_P1;HPM_P2
2021/03/08 00:01:05;;;;;;;16.88;13.30;;;;;;;;;;6224336;23;20143;-84
2021/03/08 00:03:34;;;;;;;17.67;14.65;;;;;;;;;;6225679;23;20170;-84
2021/03/08 00:06:00;;;;;;;17.42;13.50;;;;;;;;;;6225752;23;20147;-84
2021/03/08 00:08:29;;;;;;;16.55;14.35;;;;;;;;;;6227861;23;20544;-83
2021/03/08 00:10:55;;;;;;;17.50;11.95;;;;;;;;;;6225360;23;20138;-83
2021/03/08 00:13:21;;;;;;;14.20;10.65;;;;;;;;;;6230731;23;20147;-85
2021/03/08 00:15:50;;;;;;;11.60;10.02;;;;;;;;;;6225321;23;20154;-84
2021/03/08 00:18:16;;;;;;;12.88;11.10;;;;;;;;;;6225700;23;20172;-84
2021/03/08 00:20:45;;;;;;;13.75;10.65;;;;;;;;;;6227669;23;20189;-83
2021/03/08 00:23:11;;;;;;;14.80;11.35;;;;;;;;;;6225068;23;20175;-83
2021/03/08 00:25:38;;;;;;;13.60;11.57;;;;;;;;;;6229290;23;20564;-82
2021/03/08 00:28:17;;;;;;;17.17;12.40;;;;;;;;;;6228361;23;20449;-85
2021/03/08 00:30:43;;;;;;;10.73;9.38;;;;;;;;;;6227457;23;20138;-85
2021/03/08 00:33:09;;;;;;;11.88;10.65;;;;;;;;;;6227824;23;20214;-84
2021/03/08 00:35:35;;;;;;;11.68;10.32;;;;;;;;;;6225508;23;20230;-84
2021/03/08 00:38:01;;;;;;;13.13;12.00;;;;;;;;;;6225023;23;20155;-85
2021/03/08 00:40:27;;;;;;;12.18;10.88;;;;;;;;;;6225686;23;20206;-84
2021/03/08 00:42:53;;;;;;;11.60;9.10;;;;;;;;;;6223793;23;20178;-84
2021/03/08 00:45:20;;;;;;;12.30;10.32;;;;;;;;;;6225991;23;20233;-85
2021/03/08 00:47:53;;;;;;;12.73;8.35;;;;;;;;;;6227587;23;20157;-81
2021/03/08 00:50:22;;;;;;;13.38;9.23;;;;;;;;;;6224349;23;20178;-83
2021/03/08 00:52:49;;;;;;;13.57;12.20;;;;;;;;;;6228493;23;20131;-83
2021/03/08 00:55:15;;;;;;;10.80;9.30;;;;;;;;;;6224667;23;20158;-81
2021/03/08 00:57:42;;;;;;;13.90;10.48;;;;;;;;;;6224264;23;20491;-84
2021/03/08 01:00:13;;;;;;;11.25;10.02;;;;;;;;;;6224530;23;20170;-84
2021/03/08 01:02:58;;;;;;;;;;;;;;;;;;;;;
2021/03/08 01:05:28;;;;;;;13.05;9.57;;;;;;;;;;6226414;23;20147;-82
2021/03/08 01:07:56;;;;;;;10.82;9.68;;;;;;;;;;6226875;23;20139;-83
2021/03/08 01:10:30;;;;;;;10.95;8.88;;;;;;;;;;6235498;23;20158;-84
2021/03/08 01:12:58;;;;;;;16.67;10.50;;;;;;;;;;6226128;23;20151;-82
2021/03/08 01:15:26;;;;;;;10.50;8.80;;;;;;;;;;6224233;23;20142;-83
2021/03/08 01:17:53;;;;;;;11.30;8.30;;;;;;;;;;6226127;23;20277;-84
2021/03/08 01:20:19;;;;;;;11.50;8.30;;;;;;;;;;6224316;23;20574;-84
2021/03/08 01:22:46;;;;;;;11.38;8.82;;;;;;;;;;6226708;23;20190;-81
2021/03/08 01:25:17;;;;;;;8.88;7.30;;;;;;;;;;6225037;23;20150;-83
2021/03/08 01:27:43;;;;;;;12.07;9.45;;;;;;;;;;6222988;23;20150;-83
2021/03/08 01:30:16;;;;;;;9.90;8.90;;;;;;;;;;6222930;23;20257;-83
2021/03/08 01:32:42;;;;;;;15.75;9.38;;;;;;;;;;6226741;23;20485;-85
2021/03/08 01:35:09;;;;;;;10.82;8.70;;;;;;;;;;6200846;23;20171;-83
2021/03/08 01:37:35;;;;;;;12.45;8.82;;;;;;;;;;6225763;23;20147;-82
2021/03/08 01:40:01;;;;;;;13.48;9.55;;;;;;;;;;6224924;23;20177;-82
2021/03/08 01:42:27;;;;;;;14.68;8.60;;;;;;;;;;6235503;23;20176;-82
2021/03/08 01:44:53;;;;;;;11.02;10.02;;;;;;;;;;6236680;23;20221;-82
2021/03/08 01:47:19;;;;;;;11.73;8.13;;;;;;;;;;6232308;23;20146;-83
2021/03/08 01:49:46;;;;;;;11.23;9.05;;;;;;;;;;6227531;23;20174;-84
2021/03/08 01:52:12;;;;;;;10.35;7.20;;;;;;;;;;6228009;23;20529;-83
2021/03/08 01:54:38;;;;;;;8.98;8.07;;;;;;;;;;6225733;23;20169;-83
2021/03/08 01:57:05;;;;;;;11.20;9.55;;;;;;;;;;6180490;23;20216;-83
2021/03/08 01:59:31;;;;;;;11.52;8.30;;;;;;;;;;6224448;23;20159;-83
2021/03/08 02:01:58;;;;;;;9.15;8.30;;;;;;;;;;6224085;23;20308;-81
2021/03/08 02:04:24;;;;;;;8.27;6.57;;;;;;;;;;6201851;23;20139;-83
2021/03/08 02:06:50;;;;;;;8.40;7.43;;;;;;;;;;6198842;23;20147;-80
2021/03/08 02:09:16;;;;;;;12.75;8.80;;;;;;;;;;6208150;23;20178;-82
2021/03/08 02:11:46;;;;;;;10.45;8.07;;;;;;;;;;6205669;23;20143;-80
2021/03/08 02:14:18;;;;;;;9.48;6.70;;;;;;;;;;6203432;23;20166;-82
2021/03/08 02:16:53;;;;;;;9.20;8.30;;;;;;;;;;6199783;23;20157;-81
2021/03/08 02:19:28;;;;;;;8.60;6.40;;;;;;;;;;6232674;23;20169;-80
2021/03/08 02:21:57;;;;;;;10.15;7.25;;;;;;;;;;6232503;23;20173;-81
2021/03/08 02:24:27;;;;;;;7.47;5.95;;;;;;;;;;6228129;23;20147;-84
2021/03/08 02:27:26;;;;;;;8.57;6.07;;;;;;;;;;6225124;23;20277;-82
2021/03/08 02:30:07;;;;;;;7.82;5.97;;;;;;;;;;6134457;23;20170;-83
2021/03/08 02:32:36;;;;;;;7.50;5.55;;;;;;;;;;6225139;23;20142;-81
2021/03/08 02:35:10;;;;;;;10.52;5.10;;;;;;;;;;6198348;23;20173;-83
2021/03/08 02:37:41;;;;;;;7.63;5.28;;;;;;;;;;6225649;23;20134;-82
2021/03/08 02:40:13;;;;;;;9.68;6.45;;;;;;;;;;6198831;23;20178;-83
2021/03/08 02:42:41;;;;;;;7.60;5.40;;;;;;;;;;6201347;23;20253;-82
2021/03/08 02:45:08;;;;;;;11.25;4.75;;;;;;;;;;6200726;23;20549;-83
2021/03/08 02:47:38;;;;;;;6.97;6.32;;;;;;;;;;6223768;23;20138;-82
2021/03/08 02:50:06;;;;;;;8.05;5.57;;;;;;;;;;6218992;23;20178;-83
2021/03/08 02:52:34;;;;;;;6.13;5.18;;;;;;;;;;6223725;23;20186;-82
2021/03/08 02:55:01;;;;;;;6.00;4.03;;;;;;;;;;6223356;23;20232;-84
2021/03/08 02:57:30;;;;;;;5.68;5.07;;;;;;;;;;6224268;23;20154;-82
2021/03/08 02:59:57;;;;;;;9.80;4.40;;;;;;;;;;6222547;23;20166;-82
2021/03/08 03:02:23;;;;;;;10.02;5.30;;;;;;;;;;6222631;23;20174;-81
2021/03/08 03:04:50;;;;;;;6.72;4.28;;;;;;;;;;6196457;23;20600;-82
2021/03/08 03:07:17;;;;;;;6.50;4.55;;;;;;;;;;6222998;23;20150;-81
2021/03/08 03:09:44;;;;;;;6.28;2.92;;;;;;;;;;6227325;23;20245;-81
2021/03/08 03:12:11;;;;;;;9.95;4.72;;;;;;;;;;6231874;23;20150;-83
2021/03/08 03:14:37;;;;;;;4.82;3.72;;;;;;;;;;6222388;23;20522;-83
2021/03/08 03:17:04;;;;;;;8.40;4.50;;;;;;;;;;6223138;23;20651;-84
2021/03/08 03:19:32;;;;;;;12.88;5.75;;;;;;;;;;6227523;23;20167;-83
2021/03/08 03:22:01;;;;;;;6.00;4.15;;;;;;;;;;6224782;23;20628;-84
2021/03/08 03:24:28;;;;;;;4.68;3.33;;;;;;;;;;6222251;23;20222;-83
2021/03/08 03:26:55;;;;;;;5.63;4.07;;;;;;;;;;6197196;23;20491;-84
2021/03/08 03:29:22;;;;;;;5.43;3.92;;;;;;;;;;6224294;23;20635;-82
2021/03/08 03:31:49;;;;;;;3.85;3.38;;;;;;;;;;6225930;23;20155;-83
2021/03/08 03:34:16;;;;;;;9.07;5.03;;;;;;;;;;6229107;23;20147;-83
2021/03/08 03:36:44;;;;;;;5.25;4.10;;;;;;;;;;6226197;23;20199;-83
2021/03/08 03:39:11;;;;;;;5.70;4.35;;;;;;;;;;6236680;23;20167;-82
2021/03/08 03:41:38;;;;;;;4.55;3.83;;;;;;;;;;6208904;23;20173;-80
2021/03/08 03:44:04;;;;;;;3.35;3.05;;;;;;;;;;6232034;23;20596;-83
2021/03/08 03:46:30;;;;;;;11.68;3.80;;;;;;;;;;6229529;23;20154;-84
2021/03/08 03:48:56;;;;;;;4.85;4.38;;;;;;;;;;6230332;22;20248;-80
2021/03/08 03:51:22;;;;;;;5.20;3.42;;;;;;;;;;6233717;23;20138;-80
2021/03/08 03:53:49;;;;;;;3.20;2.85;;;;;;;;;;6226895;23;20142;-81
2021/03/08 03:56:15;;;;;;;5.63;3.78;;;;;;;;;;6224632;23;20240;-80
2021/03/08 03:58:52;;;;;;;3.58;3.28;;;;;;;;;;6224357;23;20150;-81
2021/03/08 04:01:20;;;;;;;8.95;4.30;;;;;;;;;;6226059;23;20165;-81
2021/03/08 04:03:50;;;;;;;4.22;3.65;;;;;;;;;;6226680;23;20584;-81
2021/03/08 04:06:18;;;;;;;11.60;4.68;;;;;;;;;;6224286;23;20166;-82
2021/03/08 04:08:50;;;;;;;6.40;3.53;;;;;;;;;;6225992;23;20555;-82
2021/03/08 04:11:17;;;;;;;7.20;4.03;;;;;;;;;;6225386;23;20173;-82
2021/03/08 04:13:44;;;;;;;6.32;3.67;;;;;;;;;;6228018;23;20205;-81
2021/03/08 04:16:11;;;;;;;7.15;3.85;;;;;;;;;;6227354;23;20139;-82
2021/03/08 04:18:37;;;;;;;5.35;3.60;;;;;;;;;;6227008;23;20161;-82
2021/03/08 04:21:04;;;;;;;5.38;3.78;;;;;;;;;;6201879;23;20547;-82
2021/03/08 04:23:32;;;;;;;11.07;4.10;;;;;;;;;;6236771;23;20178;-81
2021/03/08 04:25:58;;;;;;;4.00;3.00;;;;;;;;;;6243291;23;20484;-81
2021/03/08 04:28:24;;;;;;;3.70;3.40;;;;;;;;;;6243008;23;20181;-81
2021/03/08 04:30:50;;;;;;;5.13;3.70;;;;;;;;;;6235635;23;20174;-81
2021/03/08 04:33:18;;;;;;;8.20;5.15;;;;;;;;;;6223424;23;20180;-81
2021/03/08 04:35:46;;;;;;;3.22;2.92;;;;;;;;;;6222920;23;20191;-81
2021/03/08 04:38:12;;;;;;;5.35;3.10;;;;;;;;;;6222904;23;20264;-81
2021/03/08 04:40:39;;;;;;;4.40;3.13;;;;;;;;;;6222975;23;20159;-82
2021/03/08 04:43:06;;;;;;;4.93;2.85;;;;;;;;;;6222734;23;20181;-82
2021/03/08 04:45:32;;;;;;;4.60;3.35;;;;;;;;;;6224189;23;20123;-81
2021/03/08 04:47:59;;;;;;;3.10;2.83;;;;;;;;;;6222231;23;20159;-81
2021/03/08 04:50:26;;;;;;;5.07;4.22;;;;;;;;;;6248727;23;20178;-81
2021/03/08 04:52:53;;;;;;;6.30;3.15;;;;;;;;;;6256204;23;20158;-81
2021/03/08 04:55:21;;;;;;;7.45;3.92;;;;;;;;;;6230427;23;20142;-81
2021/03/08 04:57:47;;;;;;;6.40;3.63;;;;;;;;;;6230573;23;20477;-80
2021/03/08 05:00:14;;;;;;;6.80;4.20;;;;;;;;;;6257799;22;20189;-82
2021/03/08 05:02:41;;;;;;;5.72;3.60;;;;;;;;;;6236520;23;20158;-79
2021/03/08 05:05:08;;;;;;;5.97;4.28;;;;;;;;;;6248653;22;20142;-81
2021/03/08 05:07:36;;;;;;;7.32;3.22;;;;;;;;;;6248666;22;20115;-82
2021/03/08 05:10:02;;;;;;;4.75;4.25;;;;;;;;;;6274529;22;20154;-82
2021/03/08 05:12:28;;;;;;;6.78;3.85;;;;;;;;;;6202814;23;20466;-81
2021/03/08 05:14:55;;;;;;;6.45;3.75;;;;;;;;;;6254052;23;20138;-81
2021/03/08 05:17:23;;;;;;;4.82;2.72;;;;;;;;;;6225914;23;20192;-81
2021/03/08 05:19:50;;;;;;;3.60;3.30;;;;;;;;;;6201463;23;20173;-81
2021/03/08 05:22:16;;;;;;;3.47;3.00;;;;;;;;;;6253221;23;20639;-80
2021/03/08 05:24:44;;;;;;;3.90;2.50;;;;;;;;;;6226633;23;20200;-81
2021/03/08 05:27:12;;;;;;;3.17;2.45;;;;;;;;;;6202732;23;20213;-81
2021/03/08 05:29:42;;;;;;;5.05;3.53;;;;;;;;;;6254138;22;20161;-81
2021/03/08 05:32:23;;;;;;;3.05;2.70;;;;;;;;;;6228200;23;20191;-81
2021/03/08 05:35:02;;;;;;;4.85;3.03;;;;;;;;;;6227655;23;20489;-81
2021/03/08 05:37:29;;;;;;;3.15;2.85;;;;;;;;;;6227885;23;20140;-82
2021/03/08 05:39:56;;;;;;;4.13;3.00;;;;;;;;;;6254926;22;20169;-82
2021/03/08 05:42:26;;;;;;;8.18;3.67;;;;;;;;;;6228289;23;20169;-81
2021/03/08 05:44:56;;;;;;;4.65;3.40;;;;;;;;;;6254809;23;20146;-82
2021/03/08 05:47:31;;;;;;;6.47;3.22;;;;;;;;;;6229122;23;20178;-81
2021/03/08 05:50:02;;;;;;;5.88;4.10;;;;;;;;;;6202653;23;20177;-81
2021/03/08 05:52:31;;;;;;;5.13;4.55;;;;;;;;;;6254592;23;20571;-81
2021/03/08 05:55:21;;;;;;;5.82;4.18;;;;;;;;;;5138530;27;20760;-82
2021/03/08 05:58:07;;;;;;;4.43;3.22;;;;;;;;;;5121147;28;20156;-81
2021/03/08 06:00:55;;;;;;;6.28;3.85;;;;;;;;;;5136587;28;20583;-81
2021/03/08 06:03:40;;;;;;;3.13;2.30;;;;;;;;;;5140055;27;20160;-81
2021/03/08 06:06:15;;;;;;;5.82;5.15;;;;;;;;;;5145838;28;20195;-79
2021/03/08 06:09:03;;;;;;;4.93;2.92;;;;;;;;;;5148153;27;20197;-80
2021/03/08 06:11:35;;;;;;;3.15;2.63;;;;;;;;;;5141361;28;20160;-81
2021/03/08 06:14:07;;;;;;;6.85;3.20;;;;;;;;;;5137658;28;20206;-82
2021/03/08 06:16:37;;;;;;;4.80;2.42;;;;;;;;;;5138629;27;20144;-81
2021/03/08 06:19:05;;;;;;;4.25;3.17;;;;;;;;;;5139077;28;20279;-82
2021/03/08 06:21:35;;;;;;;8.02;4.10;;;;;;;;;;5138876;28;20158;-82
2021/03/08 06:24:02;;;;;;;3.50;3.20;;;;;;;;;;5139112;28;20164;-82
2021/03/08 06:26:31;;;;;;;4.10;3.28;;;;;;;;;;5138369;28;20156;-82
2021/03/08 06:29:01;;;;;;;6.30;3.30;;;;;;;;;;5137962;28;20687;-82
2021/03/08 06:31:28;;;;;;;3.65;2.45;;;;;;;;;;5136323;28;20200;-81
2021/03/08 06:33:56;;;;;;;5.80;2.78;;;;;;;;;;5120450;28;20213;-82
2021/03/08 06:36:23;;;;;;;8.27;3.33;;;;;;;;;;5119072;28;20366;-82
2021/03/08 06:38:51;;;;;;;6.55;3.10;;;;;;;;;;5135536;28;20260;-81
2021/03/08 06:44:24;;;;;;;4.20;3.33;;;;;;;;;;5076719;28;20235;-83
2021/03/08 06:46:50;;;;;;;3.42;2.97;;;;;;;;;;5125666;27;20168;-83
2021/03/08 06:49:19;;;;;;;5.05;3.58;;;;;;;;;;5153444;27;20213;-81
2021/03/08 06:52:01;;;;;;;3.85;3.20;;;;;;;;;;5140248;28;20183;-79
2021/03/08 06:54:29;;;;;;;2.47;2.28;;;;;;;;;;5143769;28;20195;-80
2021/03/08 06:56:56;;;;;;;5.60;2.80;;;;;;;;;;5124257;28;20205;-81
2021/03/08 06:59:23;;;;;;;5.70;3.05;;;;;;;;;;5135933;28;20195;-81
2021/03/08 07:01:52;;;;;;;3.40;2.80;;;;;;;;;;5136949;28;20218;-81
2021/03/08 07:04:18;;;;;;;7.00;4.45;;;;;;;;;;5137075;28;20172;-82
2021/03/08 07:07:06;;;;;;;6.75;3.85;;;;;;;;;;5122104;28;20172;-83
2021/03/08 07:09:34;;;;;;;4.70;2.80;;;;;;;;;;5122603;28;20708;-81
2021/03/08 07:12:03;;;;;;;3.60;3.05;;;;;;;;;;5105902;28;20176;-82
2021/03/08 07:14:30;;;;;;;7.25;3.72;;;;;;;;;;5122307;28;20245;-81
2021/03/08 07:16:57;;;;;;;6.40;3.35;;;;;;;;;;5124131;28;20161;-82
2021/03/08 07:19:26;;;;;;;5.40;3.33;;;;;;;;;;5124113;28;20234;-82
2021/03/08 07:21:55;;;;;;;5.78;5.20;;;;;;;;;;5122600;28;20169;-81
2021/03/08 07:24:25;;;;;;;8.60;3.10;;;;;;;;;;5124275;28;20192;-81
2021/03/08 07:26:53;;;;;;;4.55;2.90;;;;;;;;;;5122189;28;20203;-81
2021/03/08 07:29:20;;;;;;;7.85;3.58;;;;;;;;;;5124791;28;20253;-82
2021/03/08 07:32:02;;;;;;;;;;;;;;;;;;;;;
2021/03/08 07:34:29;;;;;;;4.13;3.38;;;;;;;;;;5123890;28;20218;-82
2021/03/08 07:36:59;;;;;;;4.95;3.08;;;;;;;;;;5127401;28;20203;-81
2021/03/08 07:39:26;;;;;;;4.13;2.40;;;;;;;;;;5125690;28;20195;-81
2021/03/08 07:41:56;;;;;;;4.22;2.95;;;;;;;;;;5108569;28;20180;-83
2021/03/08 07:44:25;;;;;;;4.03;3.45;;;;;;;;;;5126642;28;20196;-83
2021/03/08 07:46:52;;;;;;;6.97;3.15;;;;;;;;;;5110168;28;20226;-82
2021/03/08 07:49:35;;;;;;;4.63;3.05;;;;;;;;;;5122620;28;20200;-81
2021/03/08 07:52:06;;;;;;;9.57;6.28;;;;;;;;;;5122038;28;20179;-81
2021/03/08 07:54:51;;;;;;;5.82;3.38;;;;;;;;;;5121427;28;20239;-82
2021/03/08 07:57:31;;;;;;;4.85;2.40;;;;;;;;;;5121472;28;20169;-83
2021/03/08 08:00:07;;;;;;;13.13;3.17;;;;;;;;;;5121079;28;20222;-82
2021/03/08 08:02:38;;;;;;;4.45;3.25;;;;;;;;;;5121257;28;20157;-83
2021/03/08 08:05:07;;;;;;;5.45;4.05;;;;;;;;;;5120076;28;20149;-82
2021/03/08 08:07:34;;;;;;;9.77;4.15;;;;;;;;;;5104320;28;20172;-83
2021/03/08 08:10:02;;;;;;;4.47;4.07;;;;;;;;;;5120733;28;20553;-82
2021/03/08 08:12:33;;;;;;;5.63;3.55;;;;;;;;;;5121117;28;20636;-81
2021/03/08 08:15:01;;;;;;;3.65;2.55;;;;;;;;;;5103771;28;20548;-81
2021/03/08 08:17:29;;;;;;;3.65;2.85;;;;;;;;;;5123012;28;20188;-81
2021/03/08 08:20:10;;;;;;;;;;;;;;;;;;;;;
2021/03/08 08:22:37;;;;;;;4.13;2.65;;;;;;;;;;5139600;28;20157;-83
2021/03/08 08:25:04;;;;;;;2.22;2.13;;;;;;;;;;5139060;28;20165;-80
2021/03/08 08:27:32;;;;;;;2.08;1.65;;;;;;;;;;5116458;28;20605;-81
2021/03/08 08:30:03;;;;;;;5.72;3.85;;;;;;;;;;5129247;28;20212;-81
2021/03/08 08:32:48;;;;;;;3.53;2.50;;;;;;;;;;5130096;28;20164;-81
2021/03/08 08:35:19;;;;;;;4.43;2.65;;;;;;;;;;5134189;28;20248;-81
2021/03/08 08:38:07;;;;;;;2.65;1.63;;;;;;;;;;5120746;28;20176;-80
2021/03/08 08:40:35;;;;;;;3.85;1.60;;;;;;;;;;5093468;28;20219;-82
2021/03/08 08:43:16;;;;;;;6.20;2.05;;;;;;;;;;5102654;28;20172;-82
2021/03/08 08:45:47;;;;;;;3.08;2.17;;;;;;;;;;5120371;28;20177;-82
2021/03/08 08:48:17;;;;;;;2.90;1.63;;;;;;;;;;5105529;28;20626;-81
2021/03/08 08:50:47;;;;;;;1.70;1.60;;;;;;;;;;5120146;28;20203;-82
2021/03/08 08:53:33;;;;;;;2.75;2.10;;;;;;;;;;5120603;28;20203;-83
2021/03/08 08:56:00;;;;;;;2.70;2.50;;;;;;;;;;5117909;28;20250;-83
2021/03/08 08:58:45;;;;;;;2.65;1.80;;;;;;;;;;5102329;28;20167;-81
2021/03/08 09:01:25;;;;;;;1.70;1.60;;;;;;;;;;5103150;28;20176;-82
2021/03/08 09:03:59;;;;;;;2.67;2.45;;;;;;;;;;5119641;28;20176;-82
2021/03/08 09:06:44;;;;;;;3.28;1.15;;;;;;;;;;5102440;28;20585;-82
2021/03/08 09:09:38;;;;;;;5.90;2.17;;;;;;;;;;5119575;28;20590;-82
2021/03/08 09:12:06;;;;;;;2.78;1.30;;;;;;;;;;5079264;28;20169;-83
2021/03/08 09:14:41;;;;;;;5.25;1.27;;;;;;;;;;5099069;28;20518;-84
2021/03/08 09:17:23;;;;;;;1.25;1.15;;;;;;;;;;5103082;28;20244;-84
2021/03/08 09:19:56;;;;;;;3.10;1.30;;;;;;;;;;5129233;28;20197;-82
2021/03/08 09:22:28;;;;;;;7.97;1.50;;;;;;;;;;5116027;28;20181;-80
2021/03/08 09:24:59;;;;;;;1.88;1.50;;;;;;;;;;5115719;28;20153;-81
2021/03/08 09:27:36;;;;;;;11.07;2.88;;;;;;;;;;5106266;28;20177;-84
2021/03/08 09:30:03;;;;;;;2.78;1.50;;;;;;;;;;5099924;28;20207;-83
2021/03/08 09:32:30;;;;;;;1.35;0.98;;;;;;;;;;5098853;28;20181;-83
2021/03/08 09:35:00;;;;;;;2.50;1.50;;;;;;;;;;5099437;28;20216;-83
2021/03/08 09:37:29;;;;;;;3.67;1.35;;;;;;;;;;5100456;28;20188;-83
2021/03/08 09:39:56;;;;;;;1.40;1.17;;;;;;;;;;5105860;28;20223;-82
2021/03/08 09:42:41;;;;;;;1.45;1.33;;;;;;;;;;5108462;28;20165;-81
2021/03/08 09:45:33;;;;;;;;;;;;;;;;;;;;;
2021/03/08 09:48:00;;;;;;;1.33;1.23;;;;;;;;;;5116477;28;20173;-85
2021/03/08 09:50:30;;;;;;;1.75;1.30;;;;;;;;;;5099686;28;20196;-82
2021/03/08 09:53:01;;;;;;;3.60;1.88;;;;;;;;;;5099914;28;20181;-82
2021/03/08 09:55:33;;;;;;;4.97;1.48;;;;;;;;;;5103801;28;20169;-83
2021/03/08 09:58:13;;;;;;;2.17;1.45;;;;;;;;;;5108479;28;20166;-82
2021/03/08 10:00:40;;;;;;;2.95;1.90;;;;;;;;;;5117298;28;20199;-85
2021/03/08 10:03:29;;;;;;;1.65;1.30;;;;;;;;;;5118259;28;20161;-87
2021/03/08 10:05:58;;;;;;;2.35;1.45;;;;;;;;;;5116457;28;20161;-85
2021/03/08 10:08:31;;;;;;;2.33;1.70;;;;;;;;;;5105568;28;20168;-83
2021/03/08 10:11:05;;;;;;;4.35;2.25;;;;;;;;;;5099600;28;20265;-84
2021/03/08 10:13:52;;;;;;;;;;;;;;;;;;;;;
2021/03/08 10:16:29;;;;;;;2.20;1.60;;;;;;;;;;5041650;28;20184;-82
2021/03/08 10:18:57;;;;;;;3.67;2.60;;;;;;;;;;5043069;28;20198;-84
2021/03/08 10:21:25;;;;;;;12.63;4.63;;;;;;;;;;5044201;28;20216;-85
2021/03/08 10:24:00;;;;;;;5.30;2.00;;;;;;;;;;5041017;28;20175;-81
2021/03/08 10:26:26;;;;;;;2.17;1.20;;;;;;;;;;5060812;28;20245;-80
2021/03/08 10:28:55;;;;;;;2.60;1.67;;;;;;;;;;5061881;28;20204;-81
2021/03/08 10:31:25;;;;;;;6.88;1.10;;;;;;;;;;5061876;28;20188;-79
2021/03/08 10:33:53;;;;;;;7.50;1.88;;;;;;;;;;5044275;28;20336;-80
2021/03/08 10:36:21;;;;;;;3.20;1.50;;;;;;;;;;5059972;28;20180;-82
2021/03/08 10:39:01;;;;;;;2.47;1.30;;;;;;;;;;5060907;28;20190;-82
2021/03/08 10:41:28;;;;;;;4.03;1.75;;;;;;;;;;5047721;28;20219;-80
2021/03/08 10:43:56;;;;;;;3.92;1.20;;;;;;;;;;5065006;28;20272;-81
2021/03/08 10:46:34;;;;;;;1.33;1.15;;;;;;;;;;5061896;28;20567;-81
2021/03/08 10:49:05;;;;;;;2.55;1.40;;;;;;;;;;5066047;28;20635;-82
2021/03/08 10:51:32;;;;;;;4.13;1.40;;;;;;;;;;5088032;28;20184;-83
2021/03/08 10:53:58;;;;;;;4.30;1.08;;;;;;;;;;5105313;28;20201;-84
2021/03/08 10:56:33;;;;;;;4.20;1.05;;;;;;;;;;5106316;28;20257;-84
2021/03/08 10:59:00;;;;;;;2.30;1.50;;;;;;;;;;5103783;28;20277;-83
2021/03/08 11:01:49;;;;;;;1.67;1.23;;;;;;;;;;5121288;28;20176;-83
2021/03/08 11:05:04;;;;;;;;;;;;;;;;;;;;;
2021/03/08 11:08:05;;;;;;;1.90;1.63;;;;;;;;;;5031607;28;20193;-84
2021/03/08 11:10:48;;;;;;;1.67;1.17;;;;;;;;;;4972146;28;20293;-82
2021/03/08 11:13:26;;;;;;;;;;;;;;;;;;;;;
2021/03/08 11:16:05;;;;;;;4.10;1.30;;;;;;;;;;5107151;28;20169;-84
2021/03/08 11:18:39;;;;;;;6.65;1.10;;;;;;;;;;5086491;28;20176;-84
2021/03/08 11:21:56;;;;;;;;;;;;;;;;;;;;;
2021/03/08 11:24:46;;;;;;;3.42;1.90;;;;;;;;;;5101565;28;20177;-83
2021/03/08 11:27:21;;;;;;;1.20;1.02;;;;;;;;;;5109843;28;20554;-81
2021/03/08 11:30:07;;;;;;;2.80;1.10;;;;;;;;;;5105552;28;20629;-82
2021/03/08 11:33:25;;;;;;;3.40;1.20;;;;;;;;;;5119097;28;20172;-83
2021/03/08 11:46:17;;;;;;;1.30;1.13;;;;;;;;;;5075655;28;20188;-83
2021/03/08 11:49:36;;;;;;;2.10;1.00;;;;;;;;;;5059599;28;20647;-83
2021/03/08 11:59:24;;;;;;;2.13;1.30;;;;;;;;;;4933001;28;20233;-83
2021/03/08 12:02:58;;;;;;;;;;;;;;;;;;;;;
2021/03/08 12:08:20;;;;;;;1.50;1.20;;;;;;;;;;5028609;28;20227;-83
2021/03/08 12:10:47;;;;;;;3.53;2.35;;;;;;;;;;4985067;28;20172;-82
2021/03/08 12:13:19;;;;;;;1.65;1.30;;;;;;;;;;5036213;28;20261;-82
2021/03/08 12:15:46;;;;;;;4.53;1.30;;;;;;;;;;5001718;28;20250;-84
2021/03/08 12:18:12;;;;;;;2.00;1.15;;;;;;;;;;5020395;28;20171;-82
2021/03/08 12:20:38;;;;;;;3.72;1.55;;;;;;;;;;5036459;28;20175;-81
2021/03/08 12:23:05;;;;;;;4.03;1.15;;;;;;;;;;5016339;28;20208;-84
2021/03/08 12:25:31;;;;;;;1.10;0.90;;;;;;;;;;5016904;28;20163;-81
2021/03/08 12:27:58;;;;;;;4.68;1.95;;;;;;;;;;5020678;28;20548;-81
2021/03/08 12:30:24;;;;;;;4.60;1.25;;;;;;;;;;5012204;28;20171;-82
2021/03/08 12:32:51;;;;;;;4.18;1.77;;;;;;;;;;5034318;28;20174;-82
2021/03/08 12:35:18;;;;;;;3.72;1.10;;;;;;;;;;5011724;28;20254;-83
2021/03/08 12:37:44;;;;;;;2.80;1.73;;;;;;;;;;5013127;28;20206;-83
2021/03/08 12:40:27;;;;;;;1.27;1.17;;;;;;;;;;5017335;28;20262;-86
2021/03/08 12:43:00;;;;;;;3.28;1.60;;;;;;;;;;5029487;28;20175;-84
2021/03/08 12:45:27;;;;;;;7.95;1.40;;;;;;;;;;5028538;28;20171;-84
2021/03/08 12:47:53;;;;;;;3.55;1.30;;;;;;;;;;5014204;28;20196;-84
2021/03/08 12:50:19;;;;;;;1.88;1.30;;;;;;;;;;5018006;28;20163;-84
2021/03/08 12:52:46;;;;;;;1.42;1.17;;;;;;;;;;5012987;28;20176;-83
2021/03/08 12:55:13;;;;;;;3.10;1.35;;;;;;;;;;5027962;28;20199;-84
2021/03/08 12:57:43;;;;;;;2.75;1.30;;;;;;;;;;5027099;28;20281;-84
2021/03/08 13:00:10;;;;;;;2.10;0.95;;;;;;;;;;5011000;28;20213;-83
2021/03/08 13:02:39;;;;;;;2.40;1.55;;;;;;;;;;5012892;28;20178;-84
2021/03/08 13:05:06;;;;;;;2.22;1.52;;;;;;;;;;5012944;28;20179;-83
2021/03/08 13:07:33;;;;;;;4.35;1.92;;;;;;;;;;5011966;28;20209;-84
2021/03/08 13:09:59;;;;;;;2.58;1.35;;;;;;;;;;5012633;28;20179;-85
2021/03/08 13:12:26;;;;;;;2.15;1.38;;;;;;;;;;5014238;28;20167;-83
2021/03/08 13:14:56;;;;;;;1.23;1.00;;;;;;;;;;5031072;28;20213;-84
2021/03/08 13:17:22;;;;;;;1.42;1.33;;;;;;;;;;5014202;28;20198;-85
2021/03/08 13:19:51;;;;;;;4.75;1.40;;;;;;;;;;5013056;28;20171;-84
2021/03/08 13:22:17;;;;;;;2.03;1.13;;;;;;;;;;5016465;28;20156;-85
2021/03/08 13:24:44;;;;;;;3.20;2.17;;;;;;;;;;5013134;28;20179;-84
2021/03/08 13:27:15;;;;;;;1.52;1.10;;;;;;;;;;5015660;28;20231;-85
2021/03/08 13:29:44;;;;;;;4.63;1.30;;;;;;;;;;5012628;28;20171;-87
2021/03/08 13:32:11;;;;;;;1.70;1.20;;;;;;;;;;5013906;28;20187;-86
2021/03/08 13:34:41;;;;;;;2.65;0.90;;;;;;;;;;5012828;28;20249;-83
2021/03/08 13:37:08;;;;;;;2.22;1.08;;;;;;;;;;5025922;28;20191;-82
2021/03/08 13:39:35;;;;;;;2.60;1.00;;;;;;;;;;5025382;28;20171;-83
2021/03/08 13:42:02;;;;;;;2.38;1.40;;;;;;;;;;5025414;28;20233;-82
2021/03/08 13:44:28;;;;;;;1.23;1.05;;;;;;;;;;5009583;28;20186;-82
2021/03/08 13:46:55;;;;;;;1.67;1.13;;;;;;;;;;5025897;28;20599;-83
2021/03/08 13:49:22;;;;;;;3.20;1.38;;;;;;;;;;5009815;28;20193;-83
2021/03/08 13:51:50;;;;;;;3.33;2.05;;;;;;;;;;5009165;28;20172;-82
2021/03/08 13:54:16;;;;;;;4.53;1.20;;;;;;;;;;5009278;28;20207;-83
2021/03/08 13:56:42;;;;;;;1.30;1.20;;;;;;;;;;5010464;28;20230;-83
2021/03/08 13:59:10;;;;;;;2.75;1.27;;;;;;;;;;5008801;28;20175;-84
2021/03/08 14:01:38;;;;;;;1.98;1.05;;;;;;;;;;5026229;28;20194;-84
2021/03/08 14:04:04;;;;;;;1.63;1.30;;;;;;;;;;5026293;28;20195;-85
2021/03/08 14:06:31;;;;;;;1.83;1.10;;;;;;;;;;5008712;28;20202;-85
2021/03/08 14:09:16;;;;;;;2.90;1.10;;;;;;;;;;5009962;28;20210;-84
2021/03/08 14:11:56;;;;;;;1.30;1.10;;;;;;;;;;5027090;28;20184;-85
2021/03/08 14:14:26;;;;;;;2.03;1.45;;;;;;;;;;5011659;28;20202;-85
2021/03/08 14:16:54;;;;;;;2.53;1.23;;;;;;;;;;5014927;28;20187;-84
2021/03/08 14:19:43;;;;;;;;;;;;;;;;;;;;;
2021/03/08 14:22:23;;;;;;;;;;;;;;;;;;;;;
2021/03/08 14:24:58;;;;;;;2.37;0.90;;;;;;;;;;5030698;28;20245;-85
2021/03/08 14:27:34;;;;;;;9.27;1.75;;;;;;;;;;5030488;28;20472;-85
2021/03/08 14:30:25;;;;;;;2.20;1.52;;;;;;;;;;5031521;28;20152;-86
2021/03/08 14:33:15;;;;;;;2.05;1.63;;;;;;;;;;5029007;28;20726;-84
2021/03/08 14:35:45;;;;;;;1.88;1.38;;;;;;;;;;5016122;28;20179;-84
2021/03/08 14:38:25;;;;;;;1.75;1.30;;;;;;;;;;5030390;28;20174;-85
2021/03/08 14:41:21;;;;;;;;;;;;;;;;;;;;;
2021/03/08 14:44:08;;;;;;;1.42;1.05;;;;;;;;;;5027692;28;20262;-85
2021/03/08 14:46:58;;;;;;;2.45;1.42;;;;;;;;;;5035946;28;20219;-85
2021/03/08 14:49:46;;;;;;;1.40;0.90;;;;;;;;;;5033459;28;20242;-86
2021/03/08 14:52:25;;;;;;;2.25;1.10;;;;;;;;;;5031081;28;20155;-86
2021/03/08 14:54:55;;;;;;;1.00;0.90;;;;;;;;;;5026656;28;20207;-84
2021/03/08 14:57:23;;;;;;;4.75;1.27;;;;;;;;;;5016409;28;20233;-84
2021/03/08 15:00:02;;;;;;;0.80;0.80;;;;;;;;;;5016064;28;20677;-84
2021/03/08 15:02:31;;;;;;;3.90;1.55;;;;;;;;;;5014601;28;20206;-86
2021/03/08 15:04:57;;;;;;;1.10;0.90;;;;;;;;;;5014278;28;20195;-84
2021/03/08 15:07:33;;;;;;;1.92;1.10;;;;;;;;;;5013704;28;20215;-85
2021/03/08 15:09:59;;;;;;;2.17;1.00;;;;;;;;;;5013921;28;20381;-84
2021/03/08 15:12:47;;;;;;;;;;;;;;;;;;;;;
2021/03/08 15:15:15;;;;;;;1.70;1.13;;;;;;;;;;5032840;28;20202;-85
2021/03/08 15:17:44;;;;;;;3.10;1.45;;;;;;;;;;5031323;28;20237;-86
2021/03/08 15:20:40;;;;;;;;;;;;;;;;;;;;;
2021/03/08 15:23:42;;;;;;;4.15;2.90;;;;;;;;;;5049889;28;20194;-84
2021/03/08 15:26:11;;;;;;;2.10;1.30;;;;;;;;;;5033741;28;20194;-84
2021/03/08 15:28:42;;;;;;;1.33;1.13;;;;;;;;;;5017061;28;20271;-83
2021/03/08 15:31:09;;;;;;;3.70;1.90;;;;;;;;;;5029606;28;20177;-84
2021/03/08 15:33:35;;;;;;;1.95;1.42;;;;;;;;;;5012777;28;20288;-84
2021/03/08 15:36:01;;;;;;;2.85;1.50;;;;;;;;;;5011775;28;20198;-84
2021/03/08 15:38:41;;;;;;;3.08;2.40;;;;;;;;;;5013366;28;20287;-87
2021/03/08 15:41:23;;;;;;;2.88;1.75;;;;;;;;;;5031069;28;20227;-86
2021/03/08 15:44:00;;;;;;;4.35;1.70;;;;;;;;;;5031830;28;20209;-86